This is the latest recevied weather packets stored in our database for station/object NK2J. If no packets are shown the sender has not sent any weather packets the latest 10 day(s).
| Time | Temp. | Humidity | Pressure | Rain* | Wind** | Luminosity | Snow |
|---|---|---|---|---|---|---|---|
| 1777972725 | 16.11° C | 83% | 1014.2 hPa | 0 mm | - | 0 W/m² | - |
| 1777972423 | 16.11° C | 83% | 1014.2 hPa | 0 mm | - | 0 W/m² | - |
| 1777972121 | 16.11° C | 85% | 1014.2 hPa | 0 mm | - | 0 W/m² | - |
| 1777971819 | 16.11° C | 86% | 1014.2 hPa | 0 mm | - | 0 W/m² | - |
| 1777971515 | 16.11° C | 86% | 1014.2 hPa | 0 mm | - | 0 W/m² | - |
| 1777971213 | 16.11° C | 87% | 1014.3 hPa | 1.78 mm | - | 0 W/m² | - |
| 1777970911 | 15.56° C | 87% | 1014.4 hPa | 1.78 mm | - | 0 W/m² | - |
| 1777970609 | 15.56° C | 87% | 1014.6 hPa | 1.27 mm | - | 0 W/m² | - |
| 1777970306 | 15.56° C | 86% | 1014.5 hPa | 3.05 mm | - | 0 W/m² | - |
| 1777970004 | 15.56° C | 85% | 1014.7 hPa | 3.05 mm | - | 0 W/m² | - |
| 1777969700 | 15.56° C | 85% | 1014.9 hPa | 1.27 mm | - | 0 W/m² | - |
| 1777969396 | 15.56° C | 86% | 1014.8 hPa | 1.78 mm | - | 0 W/m² | - |
| 1777969093 | 15.56° C | 86% | 1014.8 hPa | 3.05 mm | - | 0 W/m² | - |
| 1777968790 | 15.56° C | 86% | 1014.7 hPa | 3.05 mm | - | 0 W/m² | - |
| 1777968486 | 15.56° C | 84% | 1014.8 hPa | 3.05 mm | - | 0 W/m² | - |
| 1777968182 | 16.11° C | 82% | 1014.9 hPa | 3.05 mm | - | 0 W/m² | - |
| 1777967878 | 16.11° C | 81% | 1015 hPa | 1.78 mm | - | 0 W/m² | - |
| 1777967575 | 16.67° C | 78% | 1015 hPa | 0 mm | - | 0 W/m² | - |
| 1777967272 | 16.67° C | 75% | 1014.9 hPa | 1.27 mm | - | 0 W/m² | - |
| 1777966970 | 17.22° C | 73% | 1014.7 hPa | 0 mm | - | 0 W/m² | - |
| 1777966667 | 17.22° C | 70% | 1014.7 hPa | 0 mm | - | 0 W/m² | - |
| 1777966365 | 17.78° C | 68% | 1014.8 hPa | 0 mm | - | 0 W/m² | - |
| 1777966061 | 17.78° C | 67% | 1014.6 hPa | 0 mm | - | 0 W/m² | - |
| 1777965757 | 18.89° C | 63% | 1014.7 hPa | 0 mm | - | 0 W/m² | - |
| 1777965453 | 19.44° C | 55% | 1014.6 hPa | 0 mm | - | 0 W/m² | - |
* Rain latest hour (hover to see other rain measurements)
** Current wind speed in m/s (hover to see current wind gust speed)